Time;durP1;ratioP1;P1;durP2;ratioP2;P2;SDS_P1;SDS_P2;PMS_P1;PMS_P2;Temp;Humidity;BMP_temperature;BMP_pressure;BME280_temperature;BME280_humidity;BME280_pressure;Samples;Min_cycle;Max_cycle;Signal;HPM_P1;HPM_P2
2022/01/18 00:02:41;;;;;;;4.47;3.63;;;8.90;99.90;;;;;;5151218;22;20254;-93
2022/01/18 00:07:48;;;;;;;5.27;3.57;;;8.90;99.90;;;;;;4883237;22;10002268;-93
2022/01/18 00:10:21;;;;;;;9.20;4.00;;;8.90;99.90;;;;;;5089457;28;20223;-93
2022/01/18 00:15:55;;;;;;;4.87;3.70;;;8.80;99.90;;;;;;5092878;28;20325;-93
2022/01/18 00:18:29;;;;;;;7.13;3.80;;;8.90;99.90;;;;;;5090809;28;20238;-93
2022/01/18 00:21:16;;;;;;;6.53;4.50;;;8.90;99.90;;;;;;5089293;28;20199;-93
2022/01/18 00:23:55;;;;;;;7.47;5.13;;;8.80;99.90;;;;;;5079622;28;20273;-93
2022/01/18 00:26:30;;;;;;;5.20;4.53;;;8.80;99.90;;;;;;5090609;28;20202;-93
2022/01/18 00:29:08;;;;;;;6.10;4.97;;;8.80;99.90;;;;;;5094762;28;20203;-94
2022/01/18 00:31:52;;;;;;;5.87;4.63;;;8.70;99.90;;;;;;5095792;28;20226;-93
2022/01/18 00:34:28;;;;;;;7.90;5.40;;;8.70;99.90;;;;;;5097389;28;20192;-93
2022/01/18 00:37:22;;;;;;;6.97;5.10;;;8.70;99.90;;;;;;5097017;28;20187;-94
2022/01/18 00:39:54;;;;;;;7.40;5.23;;;8.60;99.90;;;;;;5096247;28;20195;-94
2022/01/18 00:42:25;;;;;;;8.03;4.87;;;8.50;99.90;;;;;;5094670;28;20192;-91
2022/01/18 00:44:56;;;;;;;6.63;4.93;;;8.60;99.90;;;;;;5090761;28;20231;-93
2022/01/18 00:47:27;;;;;;;9.43;4.77;;;8.60;99.90;;;;;;5063444;28;20267;-93
2022/01/18 00:50:02;;;;;;;6.17;4.83;;;8.60;99.90;;;;;;5066354;28;20200;-92
2022/01/18 00:52:39;;;;;;;5.73;4.40;;;8.50;99.90;;;;;;5066711;28;20227;-93
2022/01/18 00:55:13;;;;;;;7.20;4.87;;;8.50;99.90;;;;;;5066431;28;20234;-93
2022/01/18 00:57:46;;;;;;;7.50;5.23;;;8.40;99.90;;;;;;5069665;28;20232;-93
2022/01/18 01:00:17;;;;;;;11.37;5.03;;;8.40;99.90;;;;;;5064167;28;20203;-92
2022/01/18 01:02:49;;;;;;;4.63;3.00;;;8.40;99.90;;;;;;5064091;28;20204;-92
2022/01/18 01:05:22;;;;;;;4.43;2.97;;;8.40;99.90;;;;;;5078659;28;20634;-93
2022/01/18 01:07:53;;;;;;;3.93;2.80;;;8.50;99.90;;;;;;5087433;28;20209;-93
2022/01/18 01:10:33;;;;;;;3.90;2.47;;;8.50;99.90;;;;;;5089302;28;20219;-92
2022/01/18 01:13:05;;;;;;;3.10;2.47;;;8.60;99.90;;;;;;5078482;28;20247;-91
2022/01/18 01:15:53;;;;;;;3.30;2.70;;;8.60;99.90;;;;;;5087277;28;20246;-93
2022/01/18 01:18:39;;;;;;;4.23;2.60;;;8.60;99.90;;;;;;5126420;22;20575;-93
2022/01/18 01:33:06;;;;;;;4.73;1.90;;;8.80;99.90;;;;;;5098066;28;20240;-92
2022/01/18 01:35:48;;;;;;;3.40;2.40;;;8.80;99.90;;;;;;5220599;22;20453;-92
2022/01/18 01:44:05;;;;;;;15.63;4.83;;;8.90;99.90;;;;;;5067182;28;20200;-92
2022/01/18 01:46:38;;;;;;;11.10;4.30;;;8.90;99.90;;;;;;5066971;28;20299;-92
2022/01/18 01:49:15;;;;;;;5.60;2.80;;;8.90;99.90;;;;;;5074921;28;20204;-92
2022/01/18 01:51:50;;;;;;;4.83;1.73;;;8.90;99.90;;;;;;5070983;28;20211;-92
2022/01/18 01:54:24;;;;;;;2.90;1.77;;;8.90;99.90;;;;;;5069619;28;20232;-92
2022/01/18 01:56:57;;;;;;;2.77;1.30;;;8.80;99.90;;;;;;5073729;28;20230;-92
2022/01/18 01:59:29;;;;;;;5.37;2.50;;;8.80;99.90;;;;;;5072537;28;20204;-91
2022/01/18 02:02:01;;;;;;;4.33;1.73;;;8.80;99.90;;;;;;5071591;28;20228;-92
2022/01/18 02:04:33;;;;;;;1.90;1.30;;;8.80;99.90;;;;;;5072108;28;20212;-93
2022/01/18 02:07:05;;;;;;;2.57;1.47;;;8.80;99.90;;;;;;5072774;28;20212;-92
2022/01/18 02:09:39;;;;;;;2.53;1.63;;;8.80;99.90;;;;;;5073611;28;20227;-92
2022/01/18 02:12:13;;;;;;;3.33;1.70;;;8.80;99.90;;;;;;5070032;28;20208;-92
2022/01/18 02:14:47;;;;;;;3.43;2.00;;;8.90;99.90;;;;;;5073218;28;20231;-92
2022/01/18 02:22:57;;;;;;;2.73;1.70;;;9.00;99.90;;;;;;5070374;28;20204;-92
2022/01/18 02:25:28;;;;;;;2.57;1.80;;;9.00;99.90;;;;;;5069169;28;20212;-92
2022/01/18 02:27:59;;;;;;;3.60;1.70;;;8.90;99.90;;;;;;5057545;28;20601;-92
2022/01/18 02:30:40;;;;;;;3.07;1.57;;;8.90;99.90;;;;;;5070226;28;20208;-92
2022/01/18 02:33:11;;;;;;;4.70;1.90;;;8.90;99.90;;;;;;5070034;28;20613;-93
2022/01/18 02:35:48;;;;;;;3.53;2.10;;;8.90;99.90;;;;;;5066191;28;20208;-93
2022/01/18 02:38:20;;;;;;;2.20;1.80;;;8.90;99.90;;;;;;5068327;28;20674;-93
2022/01/18 02:40:51;;;;;;;3.73;2.40;;;8.90;99.90;;;;;;5073091;28;20212;-93
2022/01/18 02:46:12;;;;;;;4.07;2.30;;;8.90;99.90;;;;;;5071075;28;20192;-93
2022/01/18 02:48:44;;;;;;;3.87;2.30;;;9.00;99.90;;;;;;5070061;28;20204;-93
2022/01/18 02:56:40;;;;;;;3.20;2.47;;;9.00;99.90;;;;;;5075430;28;20307;-93
2022/01/18 02:59:31;;;;;;;6.13;2.20;;;9.00;99.90;;;;;;5079015;28;20204;-93
2022/01/18 03:04:52;;;;;;;5.63;2.60;;;9.00;99.90;;;;;;5076945;28;20188;-92
2022/01/18 03:07:24;;;;;;;6.43;2.67;;;9.10;99.90;;;;;;5072028;28;20204;-93
2022/01/18 03:09:55;;;;;;;3.60;2.47;;;9.00;99.90;;;;;;5046846;28;20205;-92
2022/01/18 03:12:29;;;;;;;3.80;2.47;;;9.00;99.90;;;;;;5049153;28;20213;-92
2022/01/18 03:15:00;;;;;;;3.20;2.53;;;9.00;99.90;;;;;;5046310;28;20650;-93
2022/01/18 03:17:33;;;;;;;3.43;2.30;;;9.00;99.90;;;;;;5048619;28;20208;-92
2022/01/18 03:20:06;;;;;;;5.10;2.90;;;9.00;99.90;;;;;;5070734;28;20276;-92
2022/01/18 03:22:38;;;;;;;3.73;2.77;;;9.00;99.90;;;;;;5069989;28;20232;-92
2022/01/18 03:25:26;;;;;;;3.23;2.40;;;9.00;99.90;;;;;;5074068;28;20196;-92
2022/01/18 03:28:07;;;;;;;4.07;2.60;;;9.00;99.90;;;;;;5075990;28;20280;-92
2022/01/18 03:30:40;;;;;;;4.33;2.90;;;9.00;99.90;;;;;;5075585;28;20668;-92
2022/01/18 03:33:13;;;;;;;4.77;2.53;;;9.00;99.90;;;;;;5076143;28;20196;-92
2022/01/18 03:35:47;;;;;;;3.77;2.93;;;9.00;99.90;;;;;;5074352;28;20204;-92
2022/01/18 03:38:21;;;;;;;4.50;3.17;;;9.00;99.90;;;;;;5072860;28;20202;-93
2022/01/18 03:40:53;;;;;;;9.37;2.80;;;9.00;99.90;;;;;;5070974;28;20208;-92
2022/01/18 03:43:26;;;;;;;4.53;3.20;;;9.00;99.90;;;;;;5071295;28;20223;-92
2022/01/18 03:46:01;;;;;;;4.13;2.87;;;9.00;99.90;;;;;;5073416;28;20224;-92
2022/01/18 03:48:36;;;;;;;5.23;3.17;;;8.90;99.90;;;;;;5071188;28;20214;-93
2022/01/18 03:51:11;;;;;;;4.07;2.77;;;8.90;99.90;;;;;;5070302;28;20203;-92
2022/01/18 03:53:43;;;;;;;3.53;2.93;;;8.90;99.90;;;;;;5070458;28;20231;-93
2022/01/18 03:56:14;;;;;;;4.70;2.80;;;8.90;99.90;;;;;;5068141;28;20667;-92
2022/01/18 03:58:49;;;;;;;4.90;2.73;;;8.90;99.90;;;;;;5070614;28;20208;-92
2022/01/18 04:01:20;;;;;;;4.97;2.87;;;8.80;99.90;;;;;;5070407;28;20203;-92
2022/01/18 04:03:55;;;;;;;4.67;2.87;;;8.90;99.90;;;;;;5069441;28;20337;-91
2022/01/18 04:06:27;;;;;;;4.77;3.37;;;8.90;99.90;;;;;;5069701;28;20215;-93
2022/01/18 04:08:58;;;;;;;4.53;2.80;;;8.90;99.90;;;;;;5070053;28;20220;-93
2022/01/18 04:11:29;;;;;;;3.33;2.73;;;8.90;99.90;;;;;;5065246;28;20203;-94
2022/01/18 04:14:06;;;;;;;5.13;2.90;;;8.80;99.90;;;;;;5070919;28;20231;-93
2022/01/18 04:16:44;;;;;;;5.10;3.03;;;8.80;99.90;;;;;;5069904;28;20212;-93
2022/01/18 04:25:47;;;;;;;4.97;2.97;;;8.80;99.90;;;;;;5072360;28;20261;-93
2022/01/18 04:30:32;;;;;;;6.20;3.53;;;8.70;99.90;;;;;;5074031;28;20207;-93
2022/01/18 04:33:03;;;;;;;6.07;4.17;;;8.70;99.90;;;;;;5076832;28;20180;-93
2022/01/18 04:38:11;;;;;;;5.13;3.50;;;8.70;99.90;;;;;;5775342;22;20256;-91
2022/01/18 04:40:47;;;;;;;6.37;3.67;;;8.70;99.90;;;;;;5077363;28;20191;-93
2022/01/18 04:43:25;;;;;;;5.73;3.60;;;8.80;99.90;;;;;;5077583;28;20189;-92
2022/01/18 04:48:46;;;;;;;5.30;3.90;;;8.70;99.90;;;;;;5072564;28;20208;-92
2022/01/18 04:51:17;;;;;;;3.83;3.30;;;8.70;99.90;;;;;;5070461;28;20236;-93
2022/01/18 04:53:53;;;;;;;4.07;3.10;;;8.70;99.90;;;;;;5070907;28;20184;-93
2022/01/18 04:57:51;;;;;;;5.73;2.87;;;8.70;99.90;;;;;;5068552;28;20223;-93
2022/01/18 04:59:21;;;;;;;6.83;3.50;;;8.60;99.90;;;;;;5070532;28;20208;-93
2022/01/18 05:01:55;;;;;;;5.70;3.53;;;8.50;99.90;;;;;;5069639;28;20215;-93
2022/01/18 05:04:26;;;;;;;3.83;3.20;;;8.50;99.90;;;;;;5065605;28;20216;-92
2022/01/18 05:07:00;;;;;;;5.03;3.20;;;8.40;99.90;;;;;;5063207;28;20273;-90
2022/01/18 05:09:32;;;;;;;5.70;3.80;;;8.30;99.90;;;;;;5063868;28;20288;-91
2022/01/18 05:12:07;;;;;;;5.80;3.60;;;8.30;99.90;;;;;;5066587;28;20204;-93
2022/01/18 05:14:40;;;;;;;5.37;3.47;;;8.20;99.90;;;;;;5076447;28;20242;-93
2022/01/18 05:17:32;;;;;;;5.17;3.53;;;8.20;99.90;;;;;;5075819;28;20204;-92
2022/01/18 05:20:26;;;;;;;7.53;4.20;;;8.20;99.90;;;;;;5075008;28;20246;-92
2022/01/18 05:22:59;;;;;;;8.17;4.93;;;8.10;99.90;;;;;;5076203;28;20204;-92
2022/01/18 05:25:32;;;;;;;6.43;3.87;;;8.00;99.90;;;;;;5076438;28;20212;-92
2022/01/18 05:28:06;;;;;;;5.03;3.97;;;7.90;99.90;;;;;;5074394;28;20205;-91
2022/01/18 05:30:37;;;;;;;5.60;3.90;;;7.90;99.90;;;;;;5078932;28;20204;-92
2022/01/18 05:33:13;;;;;;;4.90;3.93;;;7.80;99.90;;;;;;5076741;28;20694;-93
2022/01/18 05:35:46;;;;;;;4.83;4.10;;;7.80;99.90;;;;;;5076965;28;20241;-93
2022/01/18 05:38:20;;;;;;;6.17;4.07;;;7.80;99.90;;;;;;5076282;28;20203;-90
2022/01/18 05:40:51;;;;;;;6.50;4.20;;;7.70;99.90;;;;;;5076951;28;20207;-92
2022/01/18 05:43:22;;;;;;;6.33;4.33;;;7.70;99.90;;;;;;5069691;28;20214;-94
2022/01/18 05:45:53;;;;;;;6.83;3.90;;;7.70;99.90;;;;;;5065216;28;20211;-92
2022/01/18 05:48:27;;;;;;;6.73;3.80;;;7.70;99.90;;;;;;5074759;28;20231;-93
2022/01/18 05:51:00;;;;;;;6.50;3.47;;;7.70;99.90;;;;;;5067031;28;20222;-95
2022/01/18 05:53:32;;;;;;;8.80;3.97;;;7.70;99.90;;;;;;5064625;28;20218;-92
2022/01/18 05:56:05;;;;;;;6.33;3.93;;;7.70;99.90;;;;;;5063304;28;20721;-95
2022/01/18 05:58:36;;;;;;;4.87;3.57;;;7.70;99.90;;;;;;5063164;28;20234;-92
2022/01/18 06:01:07;;;;;;;5.50;3.77;;;7.70;99.90;;;;;;5062122;28;20266;-89
2022/01/18 06:03:53;;;;;;;5.37;3.73;;;7.70;99.90;;;;;;5062071;28;20680;-92
2022/01/18 06:09:12;;;;;;;7.90;2.90;;;7.70;99.90;;;;;;5064354;28;20244;-93
2022/01/18 06:11:43;;;;;;;4.13;3.37;;;7.70;99.90;;;;;;5061450;28;20575;-93
2022/01/18 06:14:15;;;;;;;5.37;3.63;;;7.70;99.90;;;;;;5060363;28;20201;-93
2022/01/18 06:16:46;;;;;;;5.87;4.07;;;7.70;99.90;;;;;;5059419;28;20259;-92
2022/01/18 06:19:19;;;;;;;5.70;3.60;;;7.60;99.90;;;;;;5059412;28;20275;-92
2022/01/18 06:21:50;;;;;;;5.07;3.90;;;7.60;99.90;;;;;;5059840;28;20240;-92
2022/01/18 06:24:22;;;;;;;5.53;4.00;;;7.60;99.90;;;;;;5059924;28;20282;-93
2022/01/18 06:27:08;;;;;;;4.13;3.50;;;7.50;99.90;;;;;;5058469;28;20216;-93
2022/01/18 06:29:39;;;;;;;7.23;4.23;;;7.50;99.90;;;;;;5059172;28;20277;-93
2022/01/18 06:32:11;;;;;;;6.23;4.13;;;7.50;99.90;;;;;;5061469;28;20242;-92
2022/01/18 06:34:44;;;;;;;5.70;4.10;;;7.50;99.90;;;;;;5062985;28;20712;-92
2022/01/18 06:37:15;;;;;;;4.50;3.80;;;7.50;99.90;;;;;;5059428;28;20200;-92
2022/01/18 06:39:47;;;;;;;5.10;3.90;;;7.50;99.90;;;;;;5058954;28;20208;-92
2022/01/18 06:42:18;;;;;;;4.67;3.87;;;7.40;99.90;;;;;;5058296;28;20654;-93
2022/01/18 06:44:49;;;;;;;7.00;3.80;;;7.40;99.90;;;;;;5058102;28;20750;-93
2022/01/18 06:47:20;;;;;;;4.03;3.53;;;7.40;99.90;;;;;;5058178;28;20262;-92
2022/01/18 06:49:53;;;;;;;4.33;3.37;;;7.40;99.90;;;;;;5058245;28;20579;-94
2022/01/18 06:52:24;;;;;;;3.87;3.10;;;7.40;99.90;;;;;;5058043;28;20698;-92
2022/01/18 06:54:57;;;;;;;3.83;3.00;;;7.40;99.90;;;;;;5058233;28;20215;-93
2022/01/18 06:57:28;;;;;;;5.33;3.63;;;7.40;99.90;;;;;;5057430;28;20243;-93
2022/01/18 06:59:59;;;;;;;4.43;2.60;;;7.40;99.90;;;;;;5057887;28;20228;-94
2022/01/18 07:02:33;;;;;;;4.97;3.67;;;7.40;99.90;;;;;;5057720;28;20208;-93
2022/01/18 07:05:07;;;;;;;5.27;2.40;;;7.40;99.90;;;;;;5057288;28;20215;-93
2022/01/18 07:07:37;;;;;;;6.17;3.20;;;7.40;99.90;;;;;;5057380;28;20208;-93
2022/01/18 07:10:11;;;;;;;3.90;2.70;;;7.40;99.90;;;;;;5038608;28;20221;-91
2022/01/18 07:12:43;;;;;;;3.93;3.07;;;7.40;99.90;;;;;;5038265;28;20674;-93
2022/01/18 07:15:16;;;;;;;3.63;2.87;;;7.30;99.90;;;;;;5046056;28;20346;-93
2022/01/18 07:17:46;;;;;;;3.60;2.93;;;7.40;99.90;;;;;;5056926;28;20231;-93
2022/01/18 07:20:19;;;;;;;3.50;2.60;;;7.40;99.90;;;;;;5058465;28;20203;-91
2022/01/18 07:22:50;;;;;;;8.03;3.23;;;7.40;99.90;;;;;;5058802;28;20242;-92
2022/01/18 07:25:21;;;;;;;6.30;3.00;;;7.40;99.90;;;;;;5059317;28;20298;-93
2022/01/18 07:27:53;;;;;;;7.93;3.17;;;7.30;99.90;;;;;;5061881;28;20209;-92
2022/01/18 07:30:24;;;;;;;4.77;3.03;;;7.30;99.90;;;;;;5061881;28;20205;-92
2022/01/18 07:32:55;;;;;;;5.43;3.50;;;7.30;99.90;;;;;;5075489;28;20207;-92
2022/01/18 07:35:28;;;;;;;5.53;2.60;;;7.30;99.90;;;;;;5075509;28;20231;-93
2022/01/18 07:38:00;;;;;;;3.10;2.53;;;7.30;99.90;;;;;;5065555;28;20662;-94
2022/01/18 07:40:32;;;;;;;5.77;3.03;;;7.30;99.90;;;;;;5057912;28;20212;-92
2022/01/18 07:43:04;;;;;;;4.73;3.17;;;7.30;99.90;;;;;;5058216;28;20243;-93
2022/01/18 07:45:36;;;;;;;4.63;3.20;;;7.30;99.90;;;;;;5056207;28;20204;-92
2022/01/18 07:48:07;;;;;;;4.40;2.40;;;7.30;99.90;;;;;;5056813;28;20204;-94
2022/01/18 07:50:40;;;;;;;5.90;2.70;;;7.30;99.90;;;;;;5056677;28;20196;-94
2022/01/18 07:53:11;;;;;;;4.03;2.80;;;7.30;99.90;;;;;;5055750;28;20205;-94
2022/01/18 07:55:43;;;;;;;5.37;2.90;;;7.30;99.90;;;;;;5056259;28;20247;-93
2022/01/18 07:58:14;;;;;;;4.80;2.50;;;7.30;99.90;;;;;;5058870;28;20189;-93
2022/01/18 08:00:45;;;;;;;7.20;3.10;;;7.30;99.90;;;;;;5056815;28;20547;-93
2022/01/18 08:03:16;;;;;;;7.77;3.47;;;7.30;99.90;;;;;;5055782;28;20210;-93
2022/01/18 08:05:52;;;;;;;5.80;3.80;;;7.20;99.90;;;;;;5056483;28;20609;-94
2022/01/18 08:08:23;;;;;;;7.00;3.10;;;7.30;99.90;;;;;;5055479;28;20219;-94
2022/01/18 08:10:54;;;;;;;5.17;3.03;;;7.30;99.90;;;;;;5070312;28;20184;-93
2022/01/18 08:13:29;;;;;;;6.73;2.97;;;7.30;99.90;;;;;;5066792;28;20208;-94
2022/01/18 08:16:20;;;;;;;8.03;4.77;;;7.30;99.90;;;;;;5067880;28;20228;-94
2022/01/18 08:18:52;;;;;;;5.33;3.47;;;7.30;99.90;;;;;;5055400;28;20596;-94
2022/01/18 08:21:26;;;;;;;7.90;3.23;;;7.30;99.90;;;;;;5058760;28;20271;-93
2022/01/18 08:23:57;;;;;;;3.33;2.87;;;7.30;99.90;;;;;;5060951;28;20216;-94
2022/01/18 08:26:27;;;;;;;6.33;3.10;;;7.30;99.90;;;;;;5055302;28;20241;-94
2022/01/18 08:28:58;;;;;;;5.57;2.60;;;7.40;99.90;;;;;;5055605;28;20227;-94
2022/01/18 08:31:29;;;;;;;5.07;2.77;;;7.40;99.90;;;;;;5055894;28;20207;-94
2022/01/18 08:34:01;;;;;;;4.67;3.03;;;7.40;99.90;;;;;;5055861;28;20205;-93
2022/01/18 08:36:34;;;;;;;3.77;2.60;;;7.40;99.90;;;;;;5055227;28;20232;-93
2022/01/18 08:39:07;;;;;;;3.43;2.80;;;7.40;99.90;;;;;;5054668;28;20246;-93
2022/01/18 08:41:38;;;;;;;5.70;2.70;;;7.40;99.90;;;;;;5064195;28;20235;-92
2022/01/18 08:44:10;;;;;;;4.47;2.50;;;7.40;99.90;;;;;;5058348;28;20205;-93
2022/01/18 08:46:42;;;;;;;3.40;2.43;;;7.50;99.90;;;;;;5059563;28;20690;-93
2022/01/18 08:49:13;;;;;;;4.53;3.27;;;7.50;99.90;;;;;;5055763;28;20231;-92
2022/01/18 08:51:48;;;;;;;2.50;2.23;;;7.50;99.90;;;;;;5054210;28;20232;-92
2022/01/18 08:54:19;;;;;;;4.27;3.87;;;7.50;99.90;;;;;;5317066;22;20593;-93
2022/01/18 08:56:50;;;;;;;3.90;2.03;;;7.50;99.90;;;;;;5230089;22;20264;-92
2022/01/18 08:59:24;;;;;;;2.00;1.50;;;7.50;99.90;;;;;;5055860;28;20262;-93
2022/01/18 09:01:54;;;;;;;3.17;1.67;;;7.50;99.90;;;;;;5054804;28;20235;-93
2022/01/18 09:04:29;;;;;;;2.93;1.80;;;7.50;99.90;;;;;;5059314;28;20241;-92
2022/01/18 09:07:07;;;;;;;2.50;1.53;;;7.50;99.90;;;;;;5057325;28;20647;-92
2022/01/18 09:09:38;;;;;;;4.37;4.00;;;7.50;99.90;;;;;;5058482;28;20237;-92
2022/01/18 09:12:13;;;;;;;1.93;1.57;;;7.50;99.90;;;;;;5058902;28;20231;-93
2022/01/18 09:14:45;;;;;;;1.67;1.57;;;7.50;99.90;;;;;;5059003;28;20211;-93
2022/01/18 09:17:16;;;;;;;2.27;1.60;;;7.60;99.90;;;;;;5058388;28;20262;-93
2022/01/18 09:19:47;;;;;;;2.97;2.77;;;7.60;99.90;;;;;;5058803;28;20216;-92
2022/01/18 09:22:19;;;;;;;4.53;1.60;;;7.60;99.90;;;;;;5058623;28;20220;-94
2022/01/18 09:24:51;;;;;;;1.97;1.47;;;7.60;99.90;;;;;;5058872;28;20290;-94
2022/01/18 09:27:22;;;;;;;2.30;1.57;;;7.60;99.90;;;;;;5063900;28;20219;-90
2022/01/18 09:29:54;;;;;;;1.93;1.50;;;7.60;99.90;;;;;;5069126;28;20363;-93
2022/01/18 09:32:25;;;;;;;1.60;1.50;;;7.70;99.90;;;;;;5059338;28;20208;-92
2022/01/18 09:34:57;;;;;;;2.83;1.73;;;7.70;99.90;;;;;;5058978;28;20212;-92
2022/01/18 09:37:29;;;;;;;3.97;2.33;;;7.70;99.90;;;;;;5058646;28;20263;-94
2022/01/18 09:40:01;;;;;;;4.43;1.90;;;7.70;99.90;;;;;;5059893;28;20230;-94
2022/01/18 09:42:35;;;;;;;2.70;1.70;;;7.70;99.90;;;;;;5060076;28;20212;-92
2022/01/18 09:47:51;;;;;;;3.97;2.00;;;7.80;99.90;;;;;;5187710;22;20335;-92
2022/01/18 09:50:27;;;;;;;1.70;1.60;;;7.80;99.90;;;;;;5117828;28;20185;-92
2022/01/18 09:53:01;;;;;;;2.43;1.60;;;7.80;99.90;;;;;;5108306;28;20207;-93
2022/01/18 09:55:34;;;;;;;2.27;1.80;;;7.80;99.90;;;;;;5112100;28;20205;-93
2022/01/18 09:58:07;;;;;;;4.20;1.90;;;7.80;99.90;;;;;;5108457;28;20230;-93
2022/01/18 10:00:41;;;;;;;2.70;1.57;;;7.80;99.90;;;;;;5099130;28;20195;-94
2022/01/18 10:03:31;;;;;;;3.67;1.57;;;7.80;99.90;;;;;;5099778;28;20200;-92
2022/01/18 10:06:04;;;;;;;3.43;2.63;;;7.90;99.90;;;;;;5099168;28;20230;-94
2022/01/18 10:08:41;;;;;;;3.80;1.70;;;7.90;99.90;;;;;;5098484;28;20314;-93
2022/01/18 10:11:14;;;;;;;3.23;1.90;;;7.90;99.90;;;;;;5099741;28;20255;-93
2022/01/18 10:13:48;;;;;;;3.67;2.10;;;7.90;99.90;;;;;;5102878;28;20206;-93
2022/01/18 10:16:21;;;;;;;4.30;2.10;;;7.90;99.90;;;;;;5094325;28;20198;-94
2022/01/18 10:18:56;;;;;;;2.63;2.07;;;7.90;99.90;;;;;;5097797;28;20272;-93
2022/01/18 10:21:30;;;;;;;3.30;2.20;;;7.90;99.90;;;;;;5098206;28;20203;-94
2022/01/18 10:24:20;;;;;;;4.90;2.17;;;7.90;99.90;;;;;;5097890;28;20752;-94
2022/01/18 10:26:53;;;;;;;5.60;2.57;;;8.00;99.90;;;;;;5097203;28;20309;-94
2022/01/18 10:29:28;;;;;;;4.67;2.57;;;7.90;99.90;;;;;;5097945;28;20569;-94
2022/01/18 10:32:09;;;;;;;3.33;2.10;;;7.90;99.90;;;;;;5097680;28;20215;-94
2022/01/18 10:35:04;;;;;;;3.53;2.33;;;8.00;99.90;;;;;;5096257;28;20297;-93
2022/01/18 10:37:36;;;;;;;5.73;2.73;;;8.00;99.90;;;;;;5097388;28;20273;-93
2022/01/18 10:40:15;;;;;;;3.30;2.03;;;8.00;99.90;;;;;;5098559;28;20285;-95
2022/01/18 10:42:49;;;;;;;3.20;2.27;;;8.00;99.90;;;;;;5098808;28;20202;-93
2022/01/18 10:45:31;;;;;;;3.47;2.23;;;8.00;99.90;;;;;;5097535;28;20238;-93
2022/01/18 10:48:09;;;;;;;2.97;2.23;;;8.00;99.90;;;;;;5097692;28;20298;-93
2022/01/18 10:50:42;;;;;;;3.77;2.33;;;8.00;99.90;;;;;;5097919;28;20289;-91
2022/01/18 10:53:15;;;;;;;4.60;2.40;;;8.00;99.90;;;;;;5098151;28;20306;-93
2022/01/18 10:55:50;;;;;;;3.27;1.97;;;8.00;99.90;;;;;;5097924;28;20234;-94
2022/01/18 10:58:23;;;;;;;2.90;2.10;;;8.00;99.90;;;;;;5101609;28;20326;-93
2022/01/18 11:00:54;;;;;;;2.33;2.13;;;8.00;99.90;;;;;;5100100;28;20264;-92
2022/01/18 11:03:26;;;;;;;2.37;2.13;;;8.00;99.90;;;;;;5099193;28;20203;-93
2022/01/18 11:05:58;;;;;;;3.03;2.33;;;8.00;99.90;;;;;;5099164;28;20252;-92
2022/01/18 11:08:28;;;;;;;4.40;4.00;;;8.00;99.90;;;;;;5099099;28;20640;-93
2022/01/18 11:11:01;;;;;;;3.37;2.33;;;8.00;99.90;;;;;;5100169;28;20246;-94
2022/01/18 11:13:36;;;;;;;3.00;2.20;;;8.00;99.90;;;;;;5097370;28;20214;-95
2022/01/18 11:16:14;;;;;;;4.70;2.30;;;8.00;99.90;;;;;;5098378;28;20234;-94
2022/01/18 11:18:47;;;;;;;3.70;2.47;;;8.00;99.90;;;;;;5097332;28;20238;-94
2022/01/18 11:21:22;;;;;;;3.50;2.63;;;8.00;99.90;;;;;;5097295;28;20294;-94
2022/01/18 11:23:57;;;;;;;3.63;2.50;;;8.00;99.90;;;;;;5101220;28;20626;-94
2022/01/18 11:26:32;;;;;;;4.00;2.20;;;8.00;99.90;;;;;;5091943;28;20239;-94
2022/01/18 11:29:05;;;;;;;3.73;2.47;;;7.90;99.90;;;;;;5076515;28;20215;-95
2022/01/18 11:31:37;;;;;;;4.03;2.53;;;7.90;99.90;;;;;;5077111;28;20212;-92
2022/01/18 11:34:14;;;;;;;3.17;2.30;;;7.90;99.90;;;;;;5076859;28;20211;-93
2022/01/18 11:36:51;;;;;;;3.80;2.50;;;7.90;99.90;;;;;;5076706;28;20199;-93
2022/01/18 11:39:28;;;;;;;3.40;2.23;;;7.90;99.90;;;;;;5077475;28;20238;-92
2022/01/18 11:42:10;;;;;;;4.27;2.47;;;8.00;99.90;;;;;;5075700;28;20720;-92
2022/01/18 11:44:43;;;;;;;2.97;2.40;;;8.00;99.90;;;;;;5076252;28;20208;-94
2022/01/18 11:47:15;;;;;;;2.60;2.03;;;8.00;99.90;;;;;;5076101;28;20242;-92
2022/01/18 11:49:50;;;;;;;3.77;2.40;;;8.00;99.90;;;;;;5077200;28;20211;-91
2022/01/18 11:52:36;;;;;;;3.47;2.40;;;7.90;99.90;;;;;;5076863;28;20260;-93
2022/01/18 11:55:07;;;;;;;2.90;2.13;;;7.90;99.90;;;;;;5077970;28;20743;-92
2022/01/18 11:57:40;;;;;;;4.90;2.23;;;7.90;99.90;;;;;;5077087;28;20666;-94
2022/01/18 12:00:27;;;;;;;2.93;1.90;;;7.90;99.90;;;;;;5076924;28;20219;-92
2022/01/18 12:03:19;;;;;;;2.80;2.17;;;8.00;99.90;;;;;;5084607;28;20203;-92
2022/01/18 12:05:52;;;;;;;6.20;2.20;;;7.90;99.90;;;;;;5097181;28;20251;-92
2022/01/18 12:08:35;;;;;;;3.73;2.50;;;7.90;99.90;;;;;;5095866;28;20215;-92
2022/01/18 12:11:09;;;;;;;3.73;2.37;;;8.00;99.90;;;;;;5088442;28;20287;-93
2022/01/18 12:13:45;;;;;;;4.30;1.90;;;7.90;99.90;;;;;;5093388;28;20207;-93
2022/01/18 12:16:29;;;;;;;2.97;2.30;;;8.00;99.90;;;;;;5077177;28;20256;-92
2022/01/18 12:19:04;;;;;;;3.87;2.60;;;7.90;99.90;;;;;;5076035;28;20231;-93
2022/01/18 12:21:37;;;;;;;3.57;2.17;;;8.00;99.90;;;;;;5076624;28;20405;-93
2022/01/18 12:24:23;;;;;;;2.50;2.00;;;7.90;99.90;;;;;;5076469;28;20582;-93
2022/01/18 12:27:03;;;;;;;2.70;1.90;;;7.90;99.90;;;;;;5096009;28;20199;-93
2022/01/18 12:32:39;;;;;;;4.40;1.83;;;7.90;99.90;;;;;;5096483;28;20737;-94
2022/01/18 12:35:24;;;;;;;3.53;1.80;;;7.90;99.90;;;;;;5096840;28;20215;-93
2022/01/18 12:37:55;;;;;;;3.17;1.80;;;7.90;99.90;;;;;;5095150;28;20293;-93
2022/01/18 12:40:29;;;;;;;1.80;1.60;;;7.90;99.90;;;;;;5096412;28;20288;-93
2022/01/18 12:45:55;;;;;;;2.80;1.90;;;7.90;99.90;;;;;;5095027;28;20258;-93
2022/01/18 12:48:27;;;;;;;2.80;1.63;;;7.90;99.90;;;;;;5094998;28;20210;-92
2022/01/18 12:51:02;;;;;;;2.70;1.70;;;7.90;99.90;;;;;;5094972;28;20230;-93
2022/01/18 12:53:39;;;;;;;1.97;1.60;;;7.90;99.90;;;;;;5094070;28;20672;-93
2022/01/18 12:56:11;;;;;;;2.43;2.07;;;8.00;99.90;;;;;;5095219;28;20274;-93
2022/01/18 12:58:45;;;;;;;2.90;2.00;;;7.90;99.90;;;;;;5094146;28;20738;-93
2022/01/18 13:01:20;;;;;;;5.67;2.20;;;7.90;99.90;;;;;;5094672;28;20233;-92
2022/01/18 13:03:53;;;;;;;1.70;1.47;;;7.90;99.90;;;;;;5096305;28;20393;-92
2022/01/18 13:06:26;;;;;;;2.63;2.37;;;7.90;99.90;;;;;;5094711;28;20233;-92
2022/01/18 13:08:59;;;;;;;5.00;3.57;;;7.90;99.90;;;;;;5095361;28;20263;-94
2022/01/18 13:11:32;;;;;;;2.33;1.60;;;7.90;99.90;;;;;;5095095;28;20207;-93
2022/01/18 13:14:10;;;;;;;3.07;1.57;;;7.90;99.90;;;;;;5094721;28;20206;-93
2022/01/18 13:25:10;;;;;;;1.43;1.33;;;7.90;99.90;;;;;;5095903;28;20199;-93
2022/01/18 13:27:45;;;;;;;1.40;1.30;;;7.90;99.90;;;;;;5078916;28;20207;-93
2022/01/18 13:30:22;;;;;;;2.63;1.63;;;7.90;99.90;;;;;;5075088;28;20241;-94
2022/01/18 13:33:00;;;;;;;3.37;1.40;;;7.80;99.90;;;;;;5074462;28;20211;-92
2022/01/18 13:35:32;;;;;;;2.93;1.73;;;7.90;99.90;;;;;;5073788;28;20207;-93
2022/01/18 13:38:05;;;;;;;3.23;2.00;;;7.80;99.90;;;;;;5079092;28;20297;-93
2022/01/18 13:40:39;;;;;;;1.90;1.70;;;7.90;99.90;;;;;;5094809;28;20725;-93
2022/01/18 13:43:15;;;;;;;2.40;1.40;;;7.90;99.90;;;;;;5095113;28;20233;-93
2022/01/18 13:45:45;;;;;;;1.80;1.20;;;7.90;99.90;;;;;;5094640;28;20221;-93
2022/01/18 13:48:18;;;;;;;1.67;1.10;;;7.90;99.90;;;;;;5094071;28;20797;-94
2022/01/18 13:50:54;;;;;;;2.20;1.50;;;7.80;99.90;;;;;;5097315;28;20286;-92
2022/01/18 13:53:28;;;;;;;2.57;2.37;;;7.80;99.90;;;;;;5099006;28;20328;-92
2022/01/18 13:56:00;;;;;;;2.07;1.47;;;7.80;99.90;;;;;;5099574;28;20195;-92
2022/01/18 13:58:33;;;;;;;2.33;1.70;;;7.80;99.90;;;;;;5102352;28;20215;-92
2022/01/18 14:01:08;;;;;;;2.97;1.50;;;7.80;99.90;;;;;;5098785;28;20657;-94
2022/01/18 14:03:44;;;;;;;2.33;1.60;;;7.80;99.90;;;;;;5098305;28;20620;-93
2022/01/18 14:06:16;;;;;;;2.00;1.70;;;7.80;99.90;;;;;;5099082;28;20236;-93
2022/01/18 14:08:50;;;;;;;1.53;1.40;;;7.80;99.90;;;;;;5098311;28;20214;-91
2022/01/18 14:11:22;;;;;;;1.83;1.57;;;7.80;99.90;;;;;;5098766;28;20199;-92
2022/01/18 14:13:55;;;;;;;1.33;1.23;;;7.80;99.90;;;;;;5099067;28;20308;-93
2022/01/18 14:16:28;;;;;;;2.03;1.27;;;7.80;99.90;;;;;;5099618;28;20199;-92
2022/01/18 14:19:03;;;;;;;1.33;1.20;;;7.80;99.90;;;;;;5100843;28;20253;-93
2022/01/18 14:21:37;;;;;;;1.60;1.03;;;7.80;99.90;;;;;;5119748;28;20201;-92
2022/01/18 14:24:13;;;;;;;1.50;1.30;;;7.80;99.90;;;;;;5119726;28;20199;-94
2022/01/18 14:27:01;;;;;;;2.50;1.23;;;7.80;99.90;;;;;;5117733;28;20198;-93
2022/01/18 14:29:47;;;;;;;1.97;1.50;;;7.70;99.90;;;;;;5114025;28;20199;-93
2022/01/18 14:32:25;;;;;;;2.53;1.70;;;7.70;99.90;;;;;;5106787;28;20559;-94
2022/01/18 14:35:00;;;;;;;2.07;1.70;;;7.70;99.90;;;;;;5099415;28;20207;-92
2022/01/18 14:37:47;;;;;;;2.10;1.77;;;7.70;99.90;;;;;;5101036;28;20199;-92
2022/01/18 14:40:21;;;;;;;3.30;1.93;;;7.70;99.90;;;;;;5099051;28;20257;-93
2022/01/18 14:42:58;;;;;;;2.23;1.70;;;7.70;99.90;;;;;;5099423;28;20198;-93
2022/01/18 14:45:34;;;;;;;3.33;1.83;;;7.70;99.90;;;;;;5097407;28;20255;-92
2022/01/18 14:48:11;;;;;;;2.57;1.70;;;7.80;99.90;;;;;;5097085;28;20238;-93
2022/01/18 14:50:46;;;;;;;1.80;1.40;;;7.80;99.90;;;;;;5098244;28;20218;-93